createdAt,value
2014-09-19T00:00:57.220Z,19.91
2014-09-19T00:02:01.910Z,19.86
2014-09-19T00:03:06.599Z,19.92
2014-09-19T00:04:11.304Z,19.99
2014-09-19T00:05:16.293Z,20.29
2014-09-19T00:06:21.279Z,20.43
2014-09-19T00:07:26.265Z,20.16
2014-09-19T00:08:30.955Z,19.96
2014-09-19T00:09:35.644Z,19.85
2014-09-19T00:10:40.334Z,19.8
2014-09-19T00:11:45.023Z,19.88
2014-09-19T00:12:49.714Z,19.88
2014-09-19T00:13:54.715Z,19.88
2014-09-19T00:14:59.701Z,20.04
2014-09-19T00:16:04.392Z,19.86
2014-09-19T00:17:09.378Z,19.88
2014-09-19T00:18:14.068Z,19.84
2014-09-19T00:19:19.054Z,19.84
2014-09-19T00:20:23.743Z,19.98
2014-09-19T00:21:28.433Z,20.09
2014-09-19T00:22:33.122Z,20.18
2014-09-19T00:23:38.109Z,20.31
2014-09-19T00:24:42.797Z,20.31
2014-09-19T00:25:47.503Z,20.27
2014-09-19T00:26:52.490Z,19.95
2014-09-19T00:27:57.180Z,19.87
2014-09-19T00:29:01.853Z,19.88
2014-09-19T00:30:06.559Z,19.9
2014-09-19T00:31:11.233Z,19.69
2014-09-19T00:32:15.938Z,19.87
2014-09-19T00:33:20.612Z,20.14
2014-09-19T00:34:25.302Z,19.92
2014-09-19T00:35:30.022Z,20.05
2014-09-19T00:36:34.713Z,20.12
2014-09-19T00:37:39.401Z,19.84
2014-09-19T00:38:44.389Z,19.85
2014-09-19T00:39:49.078Z,19.59
2014-09-19T00:40:53.751Z,19.59
2014-09-19T00:41:58.754Z,19.9
2014-09-19T00:43:03.428Z,20
2014-09-19T00:44:08.118Z,19.63
2014-09-19T00:45:13.104Z,19.46
2014-09-19T00:46:17.793Z,19.3
2014-09-19T00:47:22.483Z,19.67
2014-09-19T00:48:27.172Z,19.92
2014-09-19T00:49:32.158Z,19.92
2014-09-19T00:50:36.848Z,19.96
2014-09-19T00:51:41.539Z,20.09
2014-09-19T00:52:46.524Z,19.66
2014-09-19T00:53:51.215Z,19.66
2014-09-19T00:54:55.903Z,19.48
2014-09-19T00:56:00.594Z,19.64
2014-09-19T00:57:05.282Z,19.64
2014-09-19T00:58:09.973Z,19.84
2014-09-19T00:59:14.661Z,19.94
2014-09-19T01:00:19.352Z,19.88
2014-09-19T01:01:24.025Z,19.77
2014-09-19T01:02:29.028Z,19.48
2014-09-19T01:03:33.717Z,19.52
2014-09-19T01:04:38.702Z,19.53
2014-09-19T01:05:43.376Z,19.63
2014-09-19T01:06:48.081Z,19.61
2014-09-19T01:07:52.771Z,19.54
2014-09-19T01:08:57.445Z,19.46
2014-09-19T01:10:02.134Z,19.8
2014-09-19T01:11:07.136Z,20.03
2014-09-19T01:12:11.826Z,20
2014-09-19T01:13:16.500Z,19.86
2014-09-19T01:14:21.207Z,19.52
2014-09-19T01:15:25.896Z,19.45
2014-09-19T01:16:30.586Z,19.4
2014-09-19T01:17:35.572Z,19.49
2014-09-19T01:18:40.574Z,19.72
2014-09-19T01:19:45.299Z,19.71
2014-09-19T01:20:50.337Z,19.58
2014-09-19T01:21:55.047Z,19.87
2014-09-19T01:22:59.773Z,19.9
2014-09-19T01:24:04.477Z,19.7
2014-09-19T01:25:09.180Z,19.85
2014-09-19T01:26:13.897Z,19.8
2014-09-19T01:27:18.599Z,19.86
2014-09-19T01:28:23.310Z,19.57
2014-09-19T01:29:28.003Z,19.46
2014-09-19T01:30:32.698Z,19.48
2014-09-19T01:31:37.378Z,19.53
2014-09-19T01:32:42.071Z,19.62
2014-09-19T01:33:47.061Z,19.56
2014-09-19T01:34:51.767Z,19.62
2014-09-19T01:35:56.444Z,19.94
2014-09-19T01:37:01.433Z,19.88
2014-09-19T01:38:06.123Z,19.84
2014-09-19T01:39:10.829Z,19.98
2014-09-19T01:40:15.518Z,19.54
2014-09-19T01:41:20.192Z,19.56
2014-09-19T01:42:24.898Z,19.52
2014-09-19T01:43:29.588Z,19.49
2014-09-19T01:44:34.574Z,19.64
2014-09-19T01:45:39.265Z,19.73
2014-09-19T01:46:43.955Z,19.88
2014-09-19T01:47:48.645Z,19.82
2014-09-19T01:48:53.333Z,20
2014-09-19T01:49:58.306Z,19.88
2014-09-19T01:51:03.010Z,19.8
2014-09-19T01:52:07.685Z,19.72
2014-09-19T01:53:12.373Z,19.82
2014-09-19T01:54:17.064Z,19.7
2014-09-19T01:55:21.752Z,19.72
2014-09-19T01:56:26.740Z,19.16
2014-09-19T01:57:31.727Z,19.17
2014-09-19T01:58:36.416Z,19.57
2014-09-19T01:59:41.106Z,19.7
2014-09-19T02:00:45.795Z,19.81
2014-09-19T02:01:50.485Z,19.82
2014-09-19T02:02:55.174Z,19.98
2014-09-19T02:03:59.864Z,19.54
2014-09-19T02:05:04.553Z,19.28
2014-09-19T02:06:09.243Z,19.19
2014-09-19T02:07:13.933Z,19.1
2014-09-19T02:08:18.622Z,19.36
2014-09-19T02:09:23.608Z,19.54
2014-09-19T02:10:28.594Z,19.7
2014-09-19T02:11:33.283Z,19.7
2014-09-19T02:12:38.271Z,19.74
2014-09-19T02:13:42.960Z,19.68
2014-09-19T02:14:47.650Z,19.7
2014-09-19T02:15:52.339Z,19.68
2014-09-19T02:16:57.326Z,19.78
2014-09-19T02:18:02.016Z,19.82
2014-09-19T02:19:06.705Z,19.76
2014-09-19T02:20:11.411Z,19.73
2014-09-19T02:21:16.100Z,19.73
2014-09-19T02:22:20.789Z,19.56
2014-09-19T02:23:25.479Z,19.49
2014-09-19T02:24:30.466Z,19.68
2014-09-19T02:25:35.452Z,19.54
2014-09-19T02:26:40.141Z,19.73
2014-09-19T02:27:44.830Z,19.66
2014-09-19T02:28:49.519Z,19.8
2014-09-19T02:29:54.209Z,19.6
2014-09-19T02:30:58.898Z,19.48
2014-09-19T02:32:03.588Z,19.4
2014-09-19T02:33:08.293Z,19.53
2014-09-19T02:34:12.983Z,19.49
2014-09-19T02:35:17.671Z,19.59
2014-09-19T02:36:22.363Z,19.5
2014-09-19T02:37:27.052Z,19.63
2014-09-19T02:38:32.039Z,19.49
2014-09-19T02:39:36.729Z,19.64
2014-09-19T02:40:41.730Z,19.73
2014-09-19T02:41:46.419Z,19.65
2014-09-19T02:42:51.125Z,19.78
2014-09-19T02:43:56.111Z,19.86
2014-09-19T02:45:00.800Z,19.66
2014-09-19T02:46:05.490Z,19.65
2014-09-19T02:47:10.476Z,19.82
2014-09-19T02:48:15.165Z,19.86
2014-09-19T02:49:19.856Z,19.98
2014-09-19T02:50:24.547Z,20.06
2014-09-19T02:51:29.236Z,19.86
2014-09-19T02:52:33.925Z,19.96
2014-09-19T02:53:38.614Z,19.99
2014-09-19T02:54:43.602Z,19.92
2014-09-19T02:55:48.291Z,19.77
2014-09-19T02:56:52.981Z,19.78
2014-09-19T02:57:57.670Z,19.84
2014-09-19T02:59:02.657Z,19.84
2014-09-19T03:00:07.347Z,19.62
2014-09-19T03:01:12.332Z,19.64
2014-09-19T03:02:17.319Z,19.7
2014-09-19T03:03:22.008Z,19.76
2014-09-19T03:04:26.682Z,19.72
2014-09-19T03:05:31.372Z,19.77
2014-09-19T03:06:36.061Z,19.78
2014-09-19T03:07:40.751Z,19.88
2014-09-19T03:08:45.440Z,19.82
2014-09-19T03:09:50.130Z,19.76
2014-09-19T03:10:54.819Z,19.66
2014-09-19T03:11:59.509Z,19.64
2014-09-19T03:13:04.494Z,19.8
2014-09-19T03:14:09.184Z,19.84
2014-09-19T03:15:13.873Z,19.84
2014-09-19T03:16:18.564Z,19.84
2014-09-19T03:17:23.552Z,19.76
2014-09-19T03:18:28.240Z,19.84
2014-09-19T03:19:32.947Z,19.8
2014-09-19T03:20:37.635Z,19.96
2014-09-19T03:21:42.310Z,19.88
2014-09-19T03:22:46.999Z,19.82
2014-09-19T03:23:51.689Z,20.05
2014-09-19T03:24:56.675Z,19.87
2014-09-19T03:26:01.365Z,19.77
2014-09-19T03:27:06.054Z,19.85
2014-09-19T03:28:10.744Z,19.66
2014-09-19T03:29:15.730Z,19.44
2014-09-19T03:30:20.425Z,19.54
2014-09-19T03:31:25.114Z,19.7
2014-09-19T03:32:29.804Z,19.88
2014-09-19T03:33:34.493Z,19.75
2014-09-19T03:34:39.479Z,19.2
2014-09-19T03:35:44.185Z,19.34
2014-09-19T03:36:48.874Z,19.69
2014-09-19T03:37:53.860Z,19.88
2014-09-19T03:38:58.847Z,19.69
2014-09-19T03:40:03.521Z,19.64
2014-09-19T03:41:08.209Z,19.78
2014-09-19T03:42:12.900Z,19.83
2014-09-19T03:43:17.589Z,19.76
2014-09-19T03:44:22.280Z,19.93
2014-09-19T03:45:26.969Z,19.87
2014-09-19T03:46:31.659Z,19.85
2014-09-19T03:47:36.348Z,19.89
2014-09-19T03:48:41.335Z,20.06
2014-09-19T03:49:46.321Z,19.9
2014-09-19T03:50:51.010Z,19.9
2014-09-19T03:51:55.996Z,19.78
2014-09-19T03:53:00.680Z,19.81
2014-09-19T03:54:05.668Z,19.81
2014-09-19T03:55:10.357Z,19.75
2014-09-19T03:56:15.047Z,19.99
2014-09-19T03:57:19.751Z,19.97
2014-09-19T03:58:24.442Z,20
2014-09-19T03:59:29.429Z,20.14
2014-09-19T04:00:34.118Z,20.18
2014-09-19T04:01:38.808Z,20.12
2014-09-19T04:02:43.497Z,20.14
2014-09-19T04:03:48.186Z,20.26
2014-09-19T04:04:52.876Z,20.14
2014-09-19T04:05:57.550Z,20.17
2014-09-19T04:07:02.239Z,19.99
2014-09-19T04:08:07.226Z,19.95
2014-09-19T04:09:11.915Z,19.87
2014-09-19T04:10:16.901Z,19.83
2014-09-19T04:11:21.889Z,19.84
2014-09-19T04:12:26.579Z,19.96
2014-09-19T04:13:31.565Z,20.02
2014-09-19T04:14:36.255Z,20.15
2014-09-19T04:15:40.944Z,20.11
2014-09-19T04:16:45.634Z,20.25
2014-09-19T04:17:50.323Z,20.26
2014-09-19T04:18:55.029Z,20.07
2014-09-19T04:19:59.718Z,20.1
2014-09-19T04:21:04.408Z,20.2
2014-09-19T04:22:09.097Z,20.23
2014-09-19T04:23:14.084Z,20.2
2014-09-19T04:24:18.789Z,19.86
2014-09-19T04:25:23.479Z,20.14
2014-09-19T04:26:28.168Z,19.99
2014-09-19T04:27:32.170Z,20.02
2014-09-19T04:28:37.157Z,19.91
2014-09-19T04:29:41.846Z,19.89
2014-09-19T04:30:46.535Z,19.87
2014-09-19T04:31:51.224Z,19.95
2014-09-19T04:32:55.945Z,19.85
2014-09-19T04:34:00.666Z,19.87
2014-09-19T04:35:05.386Z,19.81
2014-09-19T04:36:10.388Z,19.89
2014-09-19T04:37:15.109Z,19.91
2014-09-19T04:38:19.814Z,20.09
2014-09-19T04:39:24.834Z,20.1
2014-09-19T04:40:29.852Z,19.95
2014-09-19T04:41:34.854Z,19.8
2014-09-19T04:42:39.870Z,19.73
2014-09-19T04:43:44.575Z,20.05
2014-09-19T04:44:49.312Z,19.93
2014-09-19T04:45:54.032Z,19.75
2014-09-19T04:46:58.066Z,19.88
2014-09-19T04:48:02.771Z,19.86
2014-09-19T04:49:07.492Z,20
2014-09-19T04:50:12.509Z,20.15
2014-09-19T04:51:17.511Z,19.94
2014-09-19T04:52:22.234Z,19.88
2014-09-19T04:53:27.251Z,19.83
2014-09-19T04:54:32.254Z,19.87
2014-09-19T04:55:36.974Z,19.91
2014-09-19T04:56:41.694Z,20.04
2014-09-19T04:57:46.712Z,20.16
2014-09-19T04:58:51.417Z,20.22
2014-09-19T04:59:56.106Z,20.4
2014-09-19T05:01:00.780Z,20.37
2014-09-19T05:02:05.470Z,20.46
2014-09-19T05:03:10.160Z,20.37
2014-09-19T05:04:14.835Z,20.44
2014-09-19T05:05:19.540Z,20.4
2014-09-19T05:06:24.511Z,20.22
2014-09-19T05:07:29.199Z,19.88
2014-09-19T05:08:33.890Z,19.87
2014-09-19T05:09:38.564Z,19.87
2014-09-19T05:10:43.550Z,20.04
2014-09-19T05:11:48.239Z,20.29
2014-09-19T05:12:53.209Z,20.18
2014-09-19T05:13:57.899Z,20.24
2014-09-19T05:15:02.588Z,20.22
2014-09-19T05:16:07.575Z,20.1
2014-09-19T05:17:12.545Z,20.04
2014-09-19T05:18:17.235Z,20.08
2014-09-19T05:19:21.925Z,20.14
2014-09-19T05:20:26.615Z,20.12
2014-09-19T05:21:31.305Z,20.07
2014-09-19T05:22:35.994Z,19.92
2014-09-19T05:23:40.981Z,19.66
2014-09-19T05:24:45.655Z,19.66
2014-09-19T05:25:50.642Z,19.82
2014-09-19T05:26:55.330Z,20.12
2014-09-19T05:28:00.317Z,19.88
2014-09-19T05:29:05.303Z,19.63
2014-09-19T05:30:10.290Z,19.56
2014-09-19T05:31:14.964Z,19.47
2014-09-19T05:32:19.655Z,19.74
2014-09-19T05:33:24.640Z,19.87
2014-09-19T05:34:29.330Z,20.1
2014-09-19T05:35:34.316Z,20.02
2014-09-19T05:36:38.990Z,19.91
2014-09-19T05:37:43.679Z,19.68
2014-09-19T05:38:48.666Z,19.92
2014-09-19T05:39:53.355Z,19.85
2014-09-19T05:40:58.029Z,19.84
2014-09-19T05:42:02.719Z,20.04
2014-09-19T05:43:07.424Z,20.21
2014-09-19T05:44:12.098Z,20.38
2014-09-19T05:45:16.787Z,20.18
2014-09-19T05:46:21.477Z,20.12
2014-09-19T05:47:26.464Z,19.99
2014-09-19T05:48:31.153Z,19.86
2014-09-19T05:49:35.843Z,20.27
2014-09-19T05:50:40.517Z,20.49
2014-09-19T05:51:45.206Z,20.56
2014-09-19T05:52:50.193Z,20.68
2014-09-19T05:53:54.882Z,20.79
2014-09-19T05:54:59.869Z,20.9
2014-09-19T05:56:04.855Z,20.57
2014-09-19T05:57:09.529Z,20.52
2014-09-19T05:58:14.217Z,20.68
2014-09-19T05:59:18.908Z,20.81
2014-09-19T06:00:23.893Z,20.55
2014-09-19T06:01:28.882Z,20.64
2014-09-19T06:02:33.571Z,21.02
2014-09-19T06:03:38.277Z,21.26
2014-09-19T06:04:42.951Z,21.68
2014-09-19T06:05:47.641Z,21.94
2014-09-19T06:06:52.330Z,22.08
2014-09-19T06:07:57.004Z,21.72
2014-09-19T06:09:01.693Z,21.82
2014-09-19T06:10:06.680Z,22.12
2014-09-19T06:11:11.666Z,22.78
2014-09-19T06:12:16.341Z,23.24
2014-09-19T06:13:21.034Z,24.32
2014-09-19T06:14:25.709Z,24.74
2014-09-19T06:15:30.399Z,25.92
2014-09-19T06:16:35.384Z,25.71
2014-09-19T06:17:40.074Z,25.46
2014-09-19T06:18:44.748Z,25.01
2014-09-19T06:19:49.437Z,25.5
2014-09-19T06:20:53.440Z,25.78
2014-09-19T06:21:58.114Z,26.11
2014-09-19T06:23:02.802Z,26.4
2014-09-19T06:24:07.789Z,26.3
2014-09-19T06:25:12.478Z,25.63
2014-09-19T06:26:17.466Z,25.28
2014-09-19T06:27:22.154Z,24.98
2014-09-19T06:28:26.845Z,25.03
2014-09-19T06:29:31.533Z,25.4
2014-09-19T06:30:36.207Z,25.84
2014-09-19T06:31:41.194Z,27.03
2014-09-19T06:32:45.884Z,27.45
2014-09-19T06:33:50.588Z,28.39
2014-09-19T06:34:55.872Z,28.78
2014-09-19T06:36:00.859Z,28.07
2014-09-19T06:37:05.547Z,27.83
2014-09-19T06:38:10.221Z,28
2014-09-19T06:39:15.208Z,28.46
2014-09-19T06:40:19.898Z,27.82
2014-09-19T06:41:24.586Z,27.55
2014-09-19T06:42:29.278Z,27.82
2014-09-19T06:43:34.264Z,28.53
2014-09-19T06:44:38.954Z,28.45
2014-09-19T06:45:43.643Z,28.02
2014-09-19T06:46:48.333Z,27.15
2014-09-19T06:47:53.319Z,26.06
2014-09-19T06:48:58.009Z,25.1
2014-09-19T06:50:02.699Z,24.63
2014-09-19T06:51:07.388Z,24.95
2014-09-19T06:52:12.359Z,24.8
2014-09-19T06:53:17.346Z,27.21
2014-09-19T06:54:22.035Z,28.92
2014-09-19T06:55:26.725Z,28.16
2014-09-19T06:56:31.414Z,29.24
2014-09-19T06:57:36.103Z,28.57
2014-09-19T06:58:40.793Z,27.63
2014-09-19T06:59:45.483Z,26.67
2014-09-19T07:00:50.172Z,26.18
2014-09-19T07:01:54.862Z,26.32
2014-09-19T07:02:59.550Z,25.47
2014-09-19T07:04:04.255Z,24.72
2014-09-19T07:05:08.945Z,24.86
2014-09-19T07:06:13.619Z,25.24
2014-09-19T07:07:18.308Z,25.19
2014-09-19T07:08:22.998Z,24.97
2014-09-19T07:09:27.721Z,24.62
2014-09-19T07:10:32.723Z,23.9
2014-09-19T07:11:37.709Z,24.38
2014-09-19T07:12:42.383Z,24.28
2014-09-19T07:13:47.087Z,24.34
2014-09-19T07:14:51.761Z,23.7
2014-09-19T07:15:56.450Z,23.28
2014-09-19T07:17:01.437Z,23.62
2014-09-19T07:18:06.126Z,24
2014-09-19T07:19:10.832Z,23.49
2014-09-19T07:20:15.521Z,23.46
2014-09-19T07:21:20.507Z,23.98
2014-09-19T07:22:25.197Z,23.98
2014-09-19T07:23:29.888Z,23.97
2014-09-19T07:24:34.578Z,23.78
2014-09-19T07:25:39.252Z,23.88
2014-09-19T07:26:44.238Z,23.88
2014-09-19T07:27:48.943Z,23.9
2014-09-19T07:28:53.633Z,24.15
2014-09-19T07:29:58.321Z,24.1
2014-09-19T07:31:03.011Z,24.09
2014-09-19T07:32:07.997Z,24.13
2014-09-19T07:33:12.686Z,23.68
2014-09-19T07:34:17.673Z,24.05
2014-09-19T07:35:22.659Z,24.07
2014-09-19T07:36:27.351Z,23.87
2014-09-19T07:37:32.337Z,23.61
2014-09-19T07:38:37.027Z,23.92
2014-09-19T07:39:41.700Z,24.12
2014-09-19T07:40:46.390Z,24.13
2014-09-19T07:41:51.094Z,24.44
2014-09-19T07:42:55.768Z,24.41
2014-09-19T07:44:00.457Z,24.44
2014-09-19T07:45:05.444Z,24.33
2014-09-19T07:46:10.133Z,24.43
2014-09-19T07:47:14.823Z,24.26
2014-09-19T07:48:19.497Z,23.87
2014-09-19T07:49:24.483Z,23.97
2014-09-19T07:50:29.174Z,24.12
2014-09-19T07:51:34.161Z,24.2
2014-09-19T07:52:38.850Z,24.03
2014-09-19T07:53:43.540Z,24.14
2014-09-19T07:54:48.214Z,24.16
2014-09-19T07:55:52.903Z,24.31
2014-09-19T07:56:57.593Z,23.8
2014-09-19T07:58:02.578Z,23.9
2014-09-19T07:59:07.549Z,23.98
2014-09-19T08:00:12.238Z,24.18
2014-09-19T08:01:16.928Z,24.41
2014-09-19T08:02:21.617Z,24.38
2014-09-19T08:03:26.291Z,23.99
2014-09-19T08:04:30.983Z,24
2014-09-19T08:05:35.672Z,24.05
2014-09-19T08:06:40.362Z,24.12
2014-09-19T08:07:45.036Z,24.48
2014-09-19T08:08:49.725Z,24.66
2014-09-19T08:09:54.414Z,24.44
2014-09-19T08:10:59.103Z,24.42
2014-09-19T08:12:03.777Z,24.4
2014-09-19T08:13:08.467Z,24.55
2014-09-19T08:14:12.468Z,25.01
2014-09-19T08:15:17.455Z,25.19
2014-09-19T08:16:22.144Z,24.98
2014-09-19T08:17:26.818Z,24.67
2014-09-19T08:18:31.510Z,24.67
2014-09-19T08:19:36.198Z,24.76
2014-09-19T08:20:40.888Z,24.92
2014-09-19T08:21:45.875Z,24.66
2014-09-19T08:22:50.565Z,24.73
2014-09-19T08:23:55.254Z,24.7
2014-09-19T08:24:59.928Z,24.89
2014-09-19T08:26:04.618Z,24.89
2014-09-19T08:27:09.604Z,25
2014-09-19T08:28:14.278Z,24.96
2014-09-19T08:29:18.967Z,24.94
2014-09-19T08:30:23.954Z,24.89
2014-09-19T08:31:28.628Z,24.83
2014-09-19T08:32:33.317Z,24.86
2014-09-19T08:33:38.007Z,24.67
2014-09-19T08:34:42.680Z,24.91
2014-09-19T08:35:47.370Z,24.73
2014-09-19T08:36:52.059Z,24.63
2014-09-19T08:37:56.749Z,24.15
2014-09-19T08:39:01.735Z,24.41
2014-09-19T08:40:06.440Z,24.76
2014-09-19T08:41:11.130Z,24.89
2014-09-19T08:42:15.819Z,25
2014-09-19T08:43:20.493Z,24.92
2014-09-19T08:44:25.480Z,24.95
2014-09-19T08:45:30.170Z,25
2014-09-19T08:46:35.157Z,25.03
2014-09-19T08:47:39.830Z,24.86
2014-09-19T08:48:44.521Z,24.71
2014-09-19T08:49:49.194Z,24.52
2014-09-19T08:50:53.883Z,24.74
2014-09-19T08:51:58.573Z,25
2014-09-19T08:53:03.559Z,25
2014-09-19T08:54:08.249Z,24.7
2014-09-19T08:55:12.922Z,24.58
2014-09-19T08:56:17.611Z,24.78
2014-09-19T08:57:22.317Z,24.97
2014-09-19T08:58:27.007Z,24.78
2014-09-19T08:59:31.682Z,24.78
2014-09-19T09:00:36.371Z,25.02
2014-09-19T09:01:41.357Z,25.14
2014-09-19T09:02:46.047Z,25.28
2014-09-19T09:03:50.736Z,25.38
2014-09-19T09:04:55.426Z,25.42
2014-09-19T09:06:00.115Z,25.28
2014-09-19T09:07:04.789Z,25.24
2014-09-19T09:08:09.479Z,25.46
2014-09-19T09:09:13.481Z,25.38
2014-09-19T09:10:18.170Z,25.35
2014-09-19T09:11:22.859Z,25.43
2014-09-19T09:12:27.548Z,25.46
2014-09-19T09:13:32.240Z,25.26
2014-09-19T09:14:36.929Z,25.48
2014-09-19T09:15:41.916Z,25.7
2014-09-19T09:16:46.902Z,25.64
2014-09-19T09:17:51.576Z,25.65
2014-09-19T09:18:56.265Z,25.58
2014-09-19T09:20:01.252Z,25.86
2014-09-19T09:21:05.254Z,25.6
2014-09-19T09:22:09.942Z,25.69
2014-09-19T09:23:14.632Z,25.91
2014-09-19T09:24:19.322Z,25.79
2014-09-19T09:25:24.027Z,25.65
2014-09-19T09:26:28.716Z,25.76
2014-09-19T09:27:33.689Z,26.15
2014-09-19T09:28:38.378Z,26.37
2014-09-19T09:29:43.068Z,26.43
2014-09-19T09:30:47.757Z,26.14
2014-09-19T09:31:52.447Z,26.18
2014-09-19T09:32:57.432Z,26.18
2014-09-19T09:34:01.732Z,26.06
2014-09-19T09:35:06.420Z,26
2014-09-19T09:36:11.110Z,25.81
2014-09-19T09:37:16.096Z,26.01
2014-09-19T09:38:20.786Z,26.18
2014-09-19T09:39:25.460Z,26.12
2014-09-19T09:40:30.149Z,26.26
2014-09-19T09:41:34.841Z,25.91
2014-09-19T09:42:39.530Z,25.84
2014-09-19T09:43:44.531Z,26.1
2014-09-19T09:44:49.221Z,26.2
2014-09-19T09:45:53.911Z,26.4
2014-09-19T09:46:58.601Z,26.28
2014-09-19T09:48:03.587Z,26.42
2014-09-19T09:49:08.573Z,26.55
2014-09-19T09:50:13.262Z,26.45
2014-09-19T09:51:18.248Z,26.47
2014-09-19T09:52:23.219Z,26.44
2014-09-19T09:53:27.909Z,26.16
2014-09-19T09:54:32.600Z,26.24
2014-09-19T09:55:37.290Z,26.22
2014-09-19T09:56:41.979Z,26.17
2014-09-19T09:57:46.669Z,26.1
2014-09-19T09:58:51.359Z,25.99
2014-09-19T09:59:56.048Z,26.26
2014-09-19T10:01:00.738Z,26.2
2014-09-19T10:02:05.427Z,26.38
2014-09-19T10:03:10.116Z,26.25
2014-09-19T10:04:14.807Z,26.28
2014-09-19T10:05:19.479Z,26.25
2014-09-19T10:06:24.170Z,26.26
2014-09-19T10:07:29.155Z,26.36
2014-09-19T10:08:34.143Z,26.46
2014-09-19T10:09:38.831Z,26.46
2014-09-19T10:10:43.521Z,26.25
2014-09-19T10:11:48.196Z,26.24
2014-09-19T10:12:52.886Z,26.26
2014-09-19T10:13:57.871Z,26.12
2014-09-19T10:15:02.858Z,26.06
2014-09-19T10:16:07.844Z,26.06
2014-09-19T10:17:12.534Z,26.08
2014-09-19T10:18:17.223Z,26.2
2014-09-19T10:19:21.914Z,26.36
2014-09-19T10:20:26.588Z,26.35
2014-09-19T10:21:31.590Z,26.54
2014-09-19T10:22:36.262Z,26.43
2014-09-19T10:23:40.970Z,26.34
2014-09-19T10:24:45.984Z,26.25
2014-09-19T10:25:50.719Z,26.12
2014-09-19T10:26:55.765Z,26.21
2014-09-19T10:28:00.499Z,26.31
2014-09-19T10:29:05.232Z,26.32
2014-09-19T10:30:09.937Z,26.4
2014-09-19T10:31:14.923Z,26.28
2014-09-19T10:32:19.629Z,26.36
2014-09-19T10:33:24.334Z,26.36
2014-09-19T10:34:29.055Z,26.4
2014-09-19T10:35:33.758Z,26.37
2014-09-19T10:36:38.453Z,26.21
2014-09-19T10:37:43.445Z,26.36
2014-09-19T10:38:48.141Z,26.43
2014-09-19T10:39:52.848Z,26.46
2014-09-19T10:40:57.541Z,26.54
2014-09-19T10:42:02.232Z,26.55
2014-09-19T10:43:07.222Z,26.79
2014-09-19T10:44:11.912Z,26.79
2014-09-19T10:45:16.603Z,26.82
2014-09-19T10:46:21.293Z,26.96
2014-09-19T10:47:25.985Z,27.09
2014-09-19T10:48:30.658Z,27.03
2014-09-19T10:49:35.645Z,27
2014-09-19T10:50:40.335Z,27.19
2014-09-19T10:51:45.025Z,27.15
2014-09-19T10:52:50.011Z,27.18
2014-09-19T10:53:54.701Z,27
2014-09-19T10:54:59.375Z,26.96
2014-09-19T10:56:04.064Z,27.25
2014-09-19T10:57:08.082Z,27.29
2014-09-19T10:58:12.756Z,27.46
2014-09-19T10:59:17.445Z,27.5
2014-09-19T11:00:22.150Z,27.33
2014-09-19T11:01:26.840Z,27.15
2014-09-19T11:02:31.529Z,27.16
2014-09-19T11:03:36.236Z,27.36
2014-09-19T11:04:40.910Z,27.38
2014-09-19T11:05:45.600Z,27.38
2014-09-19T11:06:50.289Z,27.46
2014-09-19T11:07:54.979Z,27.14
2014-09-19T11:08:59.668Z,27.23
2014-09-19T11:10:04.358Z,27.3
2014-09-19T11:11:09.047Z,27.36
2014-09-19T11:12:14.035Z,27.54
2014-09-19T11:13:19.021Z,27.18
2014-09-19T11:14:23.710Z,27.33
2014-09-19T11:15:28.400Z,27.39
2014-09-19T11:16:33.089Z,27.74
2014-09-19T11:17:37.779Z,27.63
2014-09-19T11:18:42.468Z,27.59
2014-09-19T11:19:47.158Z,27.57
2014-09-19T11:20:51.847Z,27.53
2014-09-19T11:21:56.537Z,27.59
2014-09-19T11:23:01.523Z,27.66
2014-09-19T11:24:06.212Z,27.91
2014-09-19T11:25:10.901Z,27.86
2014-09-19T11:26:15.591Z,27.68
2014-09-19T11:27:20.280Z,27.69
2014-09-19T11:28:25.267Z,27.66
2014-09-19T11:29:29.956Z,27.63
2014-09-19T11:30:34.645Z,27.56
2014-09-19T11:31:39.337Z,27.75
2014-09-19T11:32:44.027Z,27.77
2014-09-19T11:33:49.013Z,27.98
2014-09-19T11:34:53.703Z,28.03
2014-09-19T11:35:58.376Z,28.21
2014-09-19T11:37:03.363Z,28.18
2014-09-19T11:38:08.052Z,28.09
2014-09-19T11:39:13.054Z,27.94
2014-09-19T11:40:17.745Z,27.79
2014-09-19T11:41:22.449Z,27.88
2014-09-19T11:42:27.139Z,27.98
2014-09-19T11:43:31.828Z,27.79
2014-09-19T11:44:36.517Z,27.9
2014-09-19T11:45:41.207Z,27.93
2014-09-19T11:46:45.896Z,27.78
2014-09-19T11:47:50.586Z,27.92
2014-09-19T11:48:55.260Z,27.8
2014-09-19T11:49:59.949Z,27.75
2014-09-19T11:51:04.639Z,27.66
2014-09-19T11:52:09.328Z,27.74
2014-09-19T11:53:14.033Z,27.56
2014-09-19T11:54:18.723Z,27.68
2014-09-19T11:55:23.412Z,27.7
2014-09-19T11:56:28.086Z,27.82
2014-09-19T11:57:32.776Z,27.88
2014-09-19T11:58:37.467Z,27.58
2014-09-19T11:59:42.468Z,27.72
2014-09-19T12:00:47.189Z,27.79
2014-09-19T12:01:51.879Z,27.7
2014-09-19T12:02:56.569Z,27.82
2014-09-19T12:04:01.274Z,27.85
2014-09-19T12:05:06.260Z,27.89
2014-09-19T12:06:11.246Z,27.8
2014-09-19T12:07:16.217Z,27.87
2014-09-19T12:08:20.922Z,27.99
2014-09-19T12:09:25.596Z,27.95
2014-09-19T12:10:30.597Z,27.93
2014-09-19T12:11:35.286Z,28.04
2014-09-19T12:12:39.962Z,28.18
2014-09-19T12:13:44.667Z,28.17
2014-09-19T12:14:49.357Z,28.05
2014-09-19T12:15:54.031Z,28.15
2014-09-19T12:16:59.017Z,28.25
2014-09-19T12:18:03.706Z,27.97
2014-09-19T12:19:08.396Z,28.01
2014-09-19T12:20:13.085Z,28.11
2014-09-19T12:21:17.775Z,27.79
2014-09-19T12:22:22.464Z,27.69
2014-09-19T12:23:27.154Z,27.67
2014-09-19T12:24:31.860Z,27.59
2014-09-19T12:25:36.846Z,27.48
2014-09-19T12:26:41.536Z,27.58
2014-09-19T12:27:46.225Z,27.78
2014-09-19T12:28:50.932Z,27.83
2014-09-19T12:29:55.621Z,27.9
2014-09-19T12:31:00.311Z,27.72
2014-09-19T12:32:05.297Z,27.84
2014-09-19T12:33:09.986Z,27.89
2014-09-19T12:34:14.973Z,27.87
2014-09-19T12:35:19.662Z,27.88
2014-09-19T12:36:24.352Z,27.75
2014-09-19T12:37:29.041Z,27.88
2014-09-19T12:38:34.028Z,27.84
2014-09-19T12:39:38.718Z,27.94
2014-09-19T12:40:43.407Z,28.04
2014-09-19T12:41:48.393Z,28.06
2014-09-19T12:42:53.083Z,27.86
2014-09-19T12:43:58.069Z,27.85
2014-09-19T12:45:02.759Z,27.88
2014-09-19T12:46:07.449Z,27.88
2014-09-19T12:47:12.138Z,27.88
2014-09-19T12:48:17.125Z,27.93
2014-09-19T12:49:21.814Z,27.95
2014-09-19T12:50:26.504Z,27.82
2014-09-19T12:51:31.193Z,27.82
2014-09-19T12:52:35.883Z,27.65
2014-09-19T12:53:40.589Z,27.58
2014-09-19T12:54:45.277Z,27.68
2014-09-19T12:55:49.968Z,27.67
2014-09-19T12:56:54.656Z,27.56
2014-09-19T12:57:59.347Z,27.49
2014-09-19T12:59:04.036Z,27.37
2014-09-19T13:00:08.726Z,27.28
2014-09-19T13:01:13.431Z,27.32
2014-09-19T13:02:18.121Z,27.36
2014-09-19T13:03:22.810Z,27.52
2014-09-19T13:04:27.531Z,27.48
2014-09-19T13:05:32.220Z,27.51
2014-09-19T13:06:36.910Z,27.56
2014-09-19T13:07:41.599Z,27.61
2014-09-19T13:08:46.289Z,27.73
2014-09-19T13:09:51.275Z,27.48
2014-09-19T13:10:55.965Z,27.56
2014-09-19T13:12:00.654Z,27.59
2014-09-19T13:13:05.344Z,27.72
2014-09-19T13:14:10.033Z,27.75
2014-09-19T13:15:14.723Z,27.53
2014-09-19T13:16:19.412Z,27.6
2014-09-19T13:17:24.117Z,27.7
2014-09-19T13:18:29.103Z,27.69
2014-09-19T13:19:33.794Z,27.4
2014-09-19T13:20:38.781Z,27.13
2014-09-19T13:21:43.768Z,27.21
2014-09-19T13:22:48.456Z,27.33
2014-09-19T13:23:53.443Z,27.2
2014-09-19T13:24:58.132Z,27.41
2014-09-19T13:26:03.118Z,27.3
2014-09-19T13:27:08.088Z,27.32
2014-09-19T13:28:12.106Z,27.24
2014-09-19T13:29:16.796Z,27.15
2014-09-19T13:30:20.799Z,27.33
2014-09-19T13:31:25.770Z,27.32
2014-09-19T13:32:30.460Z,27.43
2014-09-19T13:33:35.165Z,27.32
2014-09-19T13:34:39.854Z,27.02
2014-09-19T13:35:44.544Z,27.05
2014-09-19T13:36:49.233Z,27.16
2014-09-19T13:37:53.923Z,27.01
2014-09-19T13:38:58.613Z,27.21
2014-09-19T13:40:03.302Z,27.24
2014-09-19T13:41:07.977Z,27.42
2014-09-19T13:42:13.276Z,27.22
2014-09-19T13:43:17.965Z,27.04
2014-09-19T13:44:22.655Z,27.08
2014-09-19T13:45:27.329Z,26.97
2014-09-19T13:46:32.034Z,27.18
2014-09-19T13:47:36.723Z,27.22
2014-09-19T13:48:41.397Z,27.31
2014-09-19T13:49:46.087Z,27.22
2014-09-19T13:50:50.776Z,27.12
2014-09-19T13:51:55.465Z,27.15
2014-09-19T13:53:00.186Z,27.07
2014-09-19T13:54:04.875Z,27.04
2014-09-19T13:55:09.565Z,27.02
2014-09-19T13:56:14.255Z,26.84
2014-09-19T13:57:18.945Z,26.8
2014-09-19T13:58:23.618Z,26.83